Time;durP1;ratioP1;P1;durP2;ratioP2;P2;SDS_P1;SDS_P2;PMS_P1;PMS_P2;Temp;Humidity;BMP_temperature;BMP_pressure;BME280_temperature;BME280_humidity;BME280_pressure;Samples;Min_cycle;Max_cycle;Signal;HPM_P1;HPM_P2
2023/10/05 07:23:32;;;;;;;11.52;4.35;;;;;;;-145.79;93.74;78326.97;5286381;28;20402;-74
2023/10/05 07:26:04;;;;;;;10.48;4.40;;;;;;;-145.79;93.50;78324.84;5272316;28;20544;-74
2023/10/05 07:28:36;;;;;;;7.40;3.85;;;;;;;-145.79;93.50;78318.50;5285954;28;20036;-75
2023/10/05 07:31:07;;;;;;;6.75;3.55;;;;;;;-145.79;93.08;78322.75;5290392;28;20035;-74
2023/10/05 07:33:38;;;;;;;7.55;3.42;;;;;;;-145.79;92.85;78320.63;5292639;28;20032;-74
2023/10/05 07:36:10;;;;;;;9.20;3.83;;;;;;;-145.79;93.08;78326.97;5290029;28;20031;-77
2023/10/05 07:38:41;;;;;;;7.25;3.33;;;;;;;-145.79;92.86;78318.50;5273994;28;21500;-76
2023/10/05 07:41:12;;;;;;;8.40;3.67;;;;;;;-145.79;92.57;78316.38;5274674;28;20045;-76
2023/10/05 07:43:44;;;;;;;9.15;3.60;;;;;;;-145.79;92.74;78305.78;5292397;28;20456;-75
2023/10/05 07:46:18;;;;;;;9.65;4.32;;;;;;;-145.79;92.87;78312.13;5289518;28;20029;-75
2023/10/05 07:48:49;;;;;;;9.02;4.63;;;;;;;-145.79;92.44;78295.19;5282302;28;20458;-75
2023/10/05 07:51:21;;;;;;;11.45;4.88;;;;;;;-145.79;92.17;78299.41;5277437;28;20056;-75
2023/10/05 07:53:52;;;;;;;10.27;4.00;;;;;;;-145.79;91.64;78297.31;5288558;28;20078;-76
2023/10/05 07:56:24;;;;;;;11.38;4.38;;;;;;;-145.79;91.49;78299.41;5278369;28;20043;-74
2023/10/05 07:58:55;;;;;;;8.15;3.63;;;;;;;-145.79;91.00;78284.56;5279566;28;20029;-73
2023/10/05 08:01:27;;;;;;;8.02;3.88;;;;;;;-145.79;91.01;78282.47;5287495;28;20043;-75
2023/10/05 08:03:58;;;;;;;6.32;3.47;;;;;;;-145.79;90.79;78288.81;5288346;28;20484;-77
2023/10/05 08:06:30;;;;;;;6.28;3.45;;;;;;;-145.79;90.90;78276.09;5288389;28;20056;-74
2023/10/05 08:09:05;;;;;;;8.00;3.75;;;;;;;-145.79;90.67;78265.50;5278197;28;20052;-74
2023/10/05 08:11:37;;;;;;;9.75;4.03;;;;;;;-145.79;90.32;78267.63;5286300;28;20498;-74
2023/10/05 08:14:08;;;;;;;7.93;4.70;;;;;;;-145.79;89.97;78261.25;5286329;28;20033;-72
2023/10/05 08:16:39;;;;;;;8.10;3.35;;;;;;;-145.79;89.72;78265.50;5273327;28;20032;-74
2023/10/05 08:19:11;;;;;;;9.73;4.70;;;;;;;-145.79;89.82;78263.38;5291336;28;20535;-74
2023/10/05 08:21:42;;;;;;;8.13;4.65;;;;;;;-145.79;89.26;78259.13;5300041;28;20056;-73
2023/10/05 08:24:14;;;;;;;7.50;4.15;;;;;;;-145.79;89.52;78252.78;5265710;28;20040;-73
2023/10/05 08:26:45;;;;;;;8.13;4.80;;;;;;;-145.79;89.37;78246.41;5269818;28;20392;-73
2023/10/05 08:29:18;;;;;;;7.38;4.43;;;;;;;-145.79;89.04;78254.91;5289608;28;20093;-73
2023/10/05 08:31:50;;;;;;;5.50;3.55;;;;;;;-145.79;89.10;78250.66;5286625;28;20089;-74
2023/10/05 08:34:21;;;;;;;5.95;3.60;;;;;;;-145.79;89.17;78248.53;5277727;28;20100;-73
2023/10/05 08:36:55;;;;;;;7.68;3.72;;;;;;;-145.79;88.75;78246.41;5264927;28;20493;-75
2023/10/05 08:39:35;;;;;;;8.35;3.95;;;;;;;-145.79;88.73;78231.56;5282035;28;20028;-75
2023/10/05 08:42:07;;;;;;;5.38;3.50;;;;;;;-145.79;88.26;78235.81;5259641;28;20036;-74
2023/10/05 08:44:38;;;;;;;9.45;6.15;;;;;;;-145.79;88.21;78229.47;5251932;28;20051;-73
2023/10/05 08:47:13;;;;;;;5.32;3.08;;;;;;;-145.79;87.90;78235.81;5273002;28;20376;-73
2023/10/05 08:49:44;;;;;;;6.72;3.33;;;;;;;-145.79;88.00;78225.22;5253195;28;20035;-74
2023/10/05 08:52:20;;;;;;;10.57;3.50;;;;;;;-145.79;87.92;78218.84;5263457;28;20033;-74
2023/10/05 08:54:51;;;;;;;7.50;4.05;;;;;;;-145.79;87.31;78225.22;5262652;28;20028;-74
2023/10/05 08:57:24;;;;;;;7.53;3.72;;;;;;;-145.79;87.16;78227.34;5264490;28;20052;-73
2023/10/05 08:59:57;;;;;;;8.50;4.05;;;;;;;-145.79;87.02;78210.38;5262810;28;20075;-73
2023/10/05 09:02:28;;;;;;;11.38;4.47;;;;;;;-145.79;86.87;78210.38;5265519;28;20392;-72
2023/10/05 09:04:59;;;;;;;7.22;3.20;;;;;;;-145.79;87.06;78206.13;5274985;28;20051;-74
2023/10/05 09:07:38;;;;;;;10.18;3.25;;;;;;;-145.79;86.57;78210.38;5279052;28;20032;-75
2023/10/05 09:10:26;;;;;;;8.98;2.95;;;;;;;-145.79;86.97;78204.00;5275396;28;20033;-74
2023/10/05 09:12:58;;;;;;;7.40;3.40;;;;;;;-145.79;86.78;78210.38;5266715;28;20100;-72
2023/10/05 09:15:50;;;;;;;7.45;3.35;;;;;;;-145.79;86.25;78212.50;5263408;28;20631;-70
2023/10/05 09:18:25;;;;;;;13.77;4.18;;;;;;;-145.79;86.15;78212.50;5263746;28;20020;-73
2023/10/05 09:20:56;;;;;;;8.68;3.78;;;;;;;-145.79;86.06;78218.84;5264367;28;20108;-73
2023/10/05 09:23:31;;;;;;;10.48;3.90;;;;;;;-145.79;85.91;78223.09;5275087;28;20115;-72
2023/10/05 09:26:06;;;;;;;7.90;2.83;;;;;;;-145.79;86.06;78223.09;5258866;28;20029;-72
2023/10/05 09:29:00;;;;;;;8.75;2.97;;;;;;;-145.79;86.42;78204.00;5258584;28;20040;-73
2023/10/05 09:31:41;;;;;;;11.88;3.42;;;;;;;-145.79;85.46;78210.38;5244625;28;20039;-72
2023/10/05 09:34:15;;;;;;;12.65;3.70;;;;;;;-145.79;85.56;78210.38;5240333;28;20041;-72
2023/10/05 09:36:53;;;;;;;9.05;3.70;;;;;;;-145.79;85.46;78208.25;5255568;28;20083;-72
2023/10/05 09:39:26;;;;;;;7.40;3.55;;;;;;;-145.79;85.77;78199.78;5239831;28;20068;-72
2023/10/05 09:42:01;;;;;;;5.72;2.92;;;;;;;-145.79;85.11;78206.13;5251914;28;20021;-72
2023/10/05 09:44:36;;;;;;;7.90;3.10;;;;;;;-145.79;85.30;78193.41;5257487;28;20037;-72
2023/10/05 09:47:12;;;;;;;5.10;2.72;;;;;;;-145.79;85.31;78182.81;5274531;28;20403;-72
2023/10/05 09:49:45;;;;;;;10.88;3.42;;;;;;;-145.79;84.87;78187.06;5261100;28;20024;-73
2023/10/05 09:52:19;;;;;;;10.15;3.17;;;;;;;-145.79;84.93;78191.28;5283992;28;20040;-72
2023/10/05 09:54:52;;;;;;;31.42;25.42;;;;;;;-145.79;85.00;78178.56;5266280;28;20131;-73
2023/10/05 09:57:26;;;;;;;9.43;3.25;;;;;;;-145.79;84.70;78184.94;5263223;28;20025;-72
2023/10/05 09:59:57;;;;;;;9.05;3.05;;;;;;;-145.79;84.68;78180.69;5262128;28;20107;-73
2023/10/05 10:02:33;;;;;;;9.00;3.38;;;;;;;-145.79;85.47;78182.81;5261370;28;20033;-73
2023/10/05 10:05:26;;;;;;;5.50;2.92;;;;;;;-145.79;84.52;78184.94;5263212;28;20490;-74
2023/10/05 10:08:09;;;;;;;5.25;2.80;;;;;;;-145.79;84.87;78174.34;5247900;28;20129;-73
2023/10/05 10:10:51;;;;;;;6.57;2.95;;;;;;;-145.79;84.42;78172.22;5252536;28;20029;-70
2023/10/05 10:13:22;;;;;;;7.95;3.10;;;;;;;-145.79;84.41;78174.34;5262842;28;20431;-70
2023/10/05 10:15:57;;;;;;;6.55;2.50;;;;;;;-145.79;84.96;78170.09;5261559;28;20020;-71
2023/10/05 10:18:37;;;;;;;5.32;2.63;;;;;;;-145.79;84.55;78172.22;5263115;28;20090;-72
2023/10/05 10:21:20;;;;;;;5.57;3.55;;;;;;;-145.79;85.06;78161.63;5262770;28;20384;-70
2023/10/05 10:24:07;;;;;;;6.47;3.00;;;;;;;-145.79;85.16;78161.63;5254233;28;20030;-71
2023/10/05 10:26:43;;;;;;;7.40;2.88;;;;;;;-145.79;84.81;78161.63;5255630;28;20028;-71
2023/10/05 10:29:16;;;;;;;11.23;4.10;;;;;;;-145.79;84.61;78151.00;5265099;28;20140;-71
2023/10/05 10:32:19;;;;;;;12.38;3.50;;;;;;;-145.79;84.36;78136.19;5264993;28;20564;-71
2023/10/05 10:34:55;;;;;;;9.27;2.97;;;;;;;-145.79;83.78;78134.06;5239630;28;20812;-73
2023/10/05 10:37:36;;;;;;;;;;;;;;;-145.79;84.41;78114.97;5241496;28;20511;-73
2023/10/05 10:40:25;;;;;;;8.27;3.50;;;;;;;-145.79;84.12;78127.69;5242629;28;19950;-78
2023/10/05 10:45:41;;;;;;;4.85;3.55;;;;;;;-145.79;83.07;78123.44;5241854;28;20041;-78
2023/10/05 10:48:20;;;;;;;5.85;2.60;;;;;;;-145.79;83.41;78117.09;5241979;28;20026;-77
2023/10/05 10:50:53;;;;;;;7.13;3.13;;;;;;;-145.79;83.47;78114.97;5241440;28;20036;-76
2023/10/05 10:53:25;;;;;;;6.68;2.80;;;;;;;-145.79;82.98;78106.50;5241680;28;20064;-75
2023/10/05 10:56:20;;;;;;;8.73;4.43;;;;;;;-145.79;82.56;78093.78;5241425;28;20028;-76
2023/10/05 10:58:56;;;;;;;9.43;5.03;;;;;;;-145.79;82.46;78081.06;5257650;28;20029;-75
2023/10/05 11:01:40;;;;;;;6.75;3.17;;;;;;;-145.79;81.07;78074.69;5262294;28;20468;-76
2023/10/05 11:04:23;;;;;;;5.28;2.78;;;;;;;-145.79;81.34;78059.84;5256097;28;20022;-72
2023/10/05 11:07:00;;;;;;;4.45;2.72;;;;;;;-145.79;80.99;78061.97;5241810;28;20032;-72
2023/10/05 11:09:52;;;;;;;8.65;3.85;;;;;;;-145.79;80.58;78047.13;5241416;28;20527;-72
2023/10/05 11:12:24;;;;;;;9.45;4.28;;;;;;;-145.79;80.31;78047.13;5240446;28;20017;-72
2023/10/05 11:15:10;;;;;;;5.50;3.20;;;;;;;-145.79;80.12;78042.91;5247202;28;20092;-73
2023/10/05 11:17:46;;;;;;;6.05;3.13;;;;;;;-145.79;80.08;78032.28;5240513;28;20072;-73
2023/10/05 11:20:24;;;;;;;7.80;2.72;;;;;;;-145.79;79.53;78023.81;5241302;28;20033;-73
2023/10/05 11:23:02;;;;;;;6.72;3.15;;;;;;;-145.79;78.49;78015.34;5241352;28;20053;-74
2023/10/05 11:25:44;;;;;;;5.68;2.58;;;;;;;-145.79;78.17;78013.22;5239896;28;20053;-71
2023/10/05 11:28:24;;;;;;;8.30;2.92;;;;;;;-145.79;77.50;78011.09;5273551;28;20029;-70
2023/10/05 11:30:55;;;;;;;8.88;4.05;;;;;;;-145.79;77.58;78000.50;5264120;28;20029;-71
2023/10/05 11:33:33;;;;;;;5.95;2.85;;;;;;;-145.79;77.28;78006.84;5273773;28;20033;-69
2023/10/05 11:36:17;;;;;;;16.27;7.85;;;;;;;-145.79;77.17;78000.50;5268720;28;20064;-70
2023/10/05 11:38:48;;;;;;;8.43;3.67;;;;;;;-145.79;77.20;77979.28;5253366;28;20102;-69
2023/10/05 11:41:20;;;;;;;6.78;3.63;;;;;;;-145.79;76.57;77962.34;5269202;28;20074;-69
2023/10/05 11:43:53;;;;;;;7.40;2.97;;;;;;;-145.79;76.77;77955.97;5262976;28;20029;-70
2023/10/05 11:46:46;;;;;;;8.07;3.95;;;;;;;-145.79;75.57;77947.50;5260410;28;20029;-69
2023/10/05 11:49:17;;;;;;;6.40;3.33;;;;;;;-145.79;76.27;77951.72;5256631;28;20117;-68
2023/10/05 11:51:56;;;;;;;7.72;3.60;;;;;;;-145.79;75.36;77953.84;5266356;28;20103;-69
2023/10/05 11:54:30;;;;;;;9.20;3.10;;;;;;;-145.79;74.66;77968.69;5264864;28;20353;-68
2023/10/05 11:57:05;;;;;;;7.10;3.60;;;;;;;-145.79;75.12;77966.56;5277986;28;20021;-68
2023/10/05 11:59:39;;;;;;;9.88;3.50;;;;;;;-145.79;74.70;77955.97;5240535;28;20039;-69
2023/10/05 12:02:11;;;;;;;9.30;3.65;;;;;;;-145.79;74.10;77962.34;5245796;28;20029;-69
2023/10/05 12:04:43;;;;;;;7.95;3.80;;;;;;;-145.79;73.99;77955.97;5260778;28;20025;-70
2023/10/05 12:07:14;;;;;;;9.27;3.13;;;;;;;-145.79;74.65;77945.38;5239096;28;20028;-70
2023/10/05 12:09:47;;;;;;;8.40;3.67;;;;;;;-145.79;73.95;77953.84;5260616;28;20052;-69
2023/10/05 12:12:21;;;;;;;6.93;3.78;;;;;;;-145.79;74.26;77932.66;5256195;28;20444;-71
2023/10/05 12:14:52;;;;;;;7.78;3.67;;;;;;;-145.79;74.62;77900.84;5246644;28;20028;-70
2023/10/05 12:17:24;;;;;;;8.40;3.70;;;;;;;-145.79;73.79;77902.97;5257483;28;20357;-70
2023/10/05 12:19:57;;;;;;;9.23;3.45;;;;;;;-145.79;72.94;77919.94;5248348;28;20029;-70
2023/10/05 12:22:33;;;;;;;8.00;3.08;;;;;;;-145.79;72.46;77915.69;5260654;28;20546;-70
2023/10/05 12:25:08;;;;;;;6.80;3.13;;;;;;;-145.79;72.81;77915.69;5279895;28;20064;-70
2023/10/05 12:27:39;;;;;;;4.65;3.40;;;;;;;-145.79;72.66;77909.34;5277044;28;20027;-70
2023/10/05 12:30:15;;;;;;;8.40;3.78;;;;;;;-145.79;72.12;77919.94;5262566;28;20104;-69
2023/10/05 12:32:47;;;;;;;7.57;2.88;;;;;;;-145.79;72.73;77917.81;5253605;28;20036;-69
2023/10/05 12:35:18;;;;;;;6.00;3.67;;;;;;;-145.79;72.38;77928.41;5251376;28;20021;-71
2023/10/05 12:37:50;;;;;;;6.63;3.53;;;;;;;-145.79;73.55;77919.94;5261460;28;20388;-70
2023/10/05 12:40:26;;;;;;;5.97;3.03;;;;;;;-145.79;72.56;77928.41;5255942;28;20383;-70
2023/10/05 12:42:57;;;;;;;4.88;2.90;;;;;;;-145.79;72.37;77919.94;5263148;28;20124;-69
2023/10/05 12:45:28;;;;;;;6.70;3.05;;;;;;;-145.79;73.16;77915.69;5264727;28;20112;-69
2023/10/05 12:48:00;;;;;;;6.93;3.38;;;;;;;-145.79;73.30;77917.81;5262623;28;20021;-70
2023/10/05 12:50:31;;;;;;;7.90;5.22;;;;;;;-145.79;73.02;77905.09;5243620;28;20128;-69
2023/10/05 12:53:03;;;;;;;4.55;3.05;;;;;;;-145.79;72.75;77886.00;5264306;28;20023;-70
2023/10/05 12:55:37;;;;;;;6.38;3.22;;;;;;;-145.79;72.53;77888.13;5264568;28;20452;-70
2023/10/05 12:58:11;;;;;;;6.22;2.50;;;;;;;-145.79;71.26;77877.53;5259312;28;20074;-72
2023/10/05 13:00:44;;;;;;;5.25;2.80;;;;;;;-145.79;69.48;77864.81;5275220;28;20063;-70
2023/10/05 13:03:15;;;;;;;9.55;3.22;;;;;;;-145.79;69.52;77869.06;5254135;28;20030;-69
2023/10/05 13:05:51;;;;;;;5.28;2.38;;;;;;;-145.79;69.97;77835.13;5259644;28;20031;-69
2023/10/05 13:08:22;;;;;;;;;;;;;;;-145.79;70.98;77809.69;5268336;28;20024;-69
2023/10/05 13:10:57;;;;;;;6.50;3.07;;;;;;;-145.79;67.87;77807.59;5269362;28;20012;-69
2023/10/05 13:13:29;;;;;;;12.85;8.45;;;;;;;-145.79;67.49;77807.59;5271881;28;20322;-68
2023/10/05 13:16:05;;;;;;;7.10;3.30;;;;;;;-145.79;67.48;77801.22;5275994;28;20068;-69
2023/10/05 13:18:38;;;;;;;4.25;2.65;;;;;;;-145.79;67.47;77799.09;5269872;28;20490;-69
2023/10/05 13:21:11;;;;;;;5.82;3.17;;;;;;;-145.79;67.28;77801.22;5271594;28;20033;-69
2023/10/05 13:23:42;;;;;;;7.28;3.58;;;;;;;-145.79;66.62;77807.59;5275895;28;20340;-70
2023/10/05 13:26:16;;;;;;;5.90;2.10;;;;;;;-145.79;67.04;77803.34;5262321;28;20091;-69
2023/10/05 13:28:49;;;;;;;;;;;;;;;-145.79;66.55;77796.97;5264842;28;20051;-69
2023/10/05 13:31:21;;;;;;;4.00;2.33;;;;;;;-145.79;66.21;77813.94;5262612;28;19957;-70
2023/10/05 13:33:55;;;;;;;5.25;2.45;;;;;;;-145.79;66.47;77807.59;5266661;28;20041;-69
2023/10/05 13:36:30;;;;;;;5.28;2.50;;;;;;;-145.79;66.65;77805.47;5268203;28;20116;-70
2023/10/05 13:39:10;;;;;;;5.22;2.75;;;;;;;-145.79;67.44;77792.75;5258301;28;20029;-70
2023/10/05 13:41:46;;;;;;;5.45;3.20;;;;;;;-145.79;66.71;77792.75;5269144;28;20388;-70
2023/10/05 13:44:18;;;;;;;7.10;2.70;;;;;;;-145.79;67.23;77784.25;5275053;28;20025;-70
2023/10/05 13:46:53;;;;;;;5.45;3.08;;;;;;;-145.79;66.86;77763.06;5265270;28;20026;-70
2023/10/05 13:49:29;;;;;;;5.43;2.70;;;;;;;-145.79;66.44;77769.44;5242744;28;20457;-71
2023/10/05 13:52:05;;;;;;;5.50;2.78;;;;;;;-145.79;66.74;77760.94;5255027;28;20472;-69
2023/10/05 13:54:37;;;;;;;6.78;3.15;;;;;;;-145.79;66.70;77769.44;5261394;28;20041;-69
2023/10/05 13:57:11;;;;;;;9.43;4.13;;;;;;;-145.79;66.88;77763.06;5273515;28;20102;-69
2023/10/05 13:59:48;;;;;;;6.80;3.40;;;;;;;-145.79;67.58;77758.81;5270034;28;20425;-69
2023/10/05 14:02:21;;;;;;;7.03;4.30;;;;;;;-145.79;67.73;77771.53;5274440;28;20029;-70
2023/10/05 14:04:53;;;;;;;10.27;3.00;;;;;;;-145.79;67.55;77780.03;5258175;28;20385;-70
2023/10/05 14:07:26;;;;;;;6.10;3.33;;;;;;;-145.79;68.17;77796.97;5266292;28;20033;-70
2023/10/05 14:09:57;;;;;;;6.50;3.28;;;;;;;-145.79;67.99;77805.47;5269005;28;20033;-71
2023/10/05 14:12:28;;;;;;;6.35;2.53;;;;;;;-145.79;66.99;77801.22;5261272;28;20025;-69
2023/10/05 14:15:02;;;;;;;6.70;3.00;;;;;;;-145.79;66.77;77809.69;5255468;28;20020;-70
2023/10/05 14:17:33;;;;;;;3.88;2.67;;;;;;;-145.79;67.22;77796.97;5265545;28;20033;-70
2023/10/05 14:20:06;;;;;;;6.38;3.08;;;;;;;-145.79;67.85;77801.22;5256517;28;20108;-70
2023/10/05 14:22:38;;;;;;;4.82;2.70;;;;;;;-145.79;67.36;77792.75;5255780;28;20431;-70
2023/10/05 14:25:17;;;;;;;4.90;2.58;;;;;;;-145.79;66.28;77799.09;5254985;28;20017;-70
2023/10/05 14:27:49;;;;;;;6.40;3.17;;;;;;;-145.79;66.72;77796.97;5248843;28;20802;-72
2023/10/05 14:30:23;;;;;;;7.55;3.30;;;;;;;-145.79;67.15;77792.75;5256306;28;20103;-72
2023/10/05 14:32:54;;;;;;;10.15;3.20;;;;;;;-145.79;66.61;77796.97;5262405;28;20033;-72
2023/10/05 14:35:27;;;;;;;6.03;2.30;;;;;;;-145.79;66.44;77788.50;5263701;28;20183;-73
2023/10/05 14:37:58;;;;;;;5.40;2.72;;;;;;;-145.79;66.45;77790.63;5261465;28;20049;-72
2023/10/05 14:40:30;;;;;;;6.70;2.85;;;;;;;-145.79;66.38;77801.22;5242891;28;20028;-72
2023/10/05 14:43:01;;;;;;;5.22;2.55;;;;;;;-145.79;66.31;77807.59;5247831;28;20063;-72
2023/10/05 14:45:39;;;;;;;5.18;2.50;;;;;;;-145.79;66.43;77805.47;5264071;28;20028;-74
2023/10/05 14:48:10;;;;;;;4.70;2.60;;;;;;;-145.79;66.22;77801.22;5251492;28;20105;-71
2023/10/05 14:50:42;;;;;;;6.28;2.80;;;;;;;-145.79;66.36;77794.88;5241172;28;20036;-70
2023/10/05 14:53:13;;;;;;;4.97;2.58;;;;;;;-145.79;66.12;77805.47;5253331;28;20127;-69
2023/10/05 14:55:50;;;;;;;4.97;2.60;;;;;;;-145.79;66.09;77799.09;5252623;28;20029;-69
2023/10/05 14:58:22;;;;;;;6.78;3.65;;;;;;;-145.79;66.17;77788.50;5242688;28;20457;-69
2023/10/05 15:00:53;;;;;;;6.50;2.92;;;;;;;-145.79;66.04;77792.75;5243735;28;20086;-72
2023/10/05 15:03:25;;;;;;;6.63;2.50;;;;;;;-145.79;65.44;77784.25;5261683;28;20028;-72
2023/10/05 15:05:59;;;;;;;4.03;2.90;;;;;;;-145.79;66.08;77775.78;5260873;28;20063;-72
2023/10/05 15:08:32;;;;;;;5.07;3.05;;;;;;;-145.79;65.74;77771.53;5250588;28;20470;-72
2023/10/05 15:11:07;;;;;;;5.00;2.50;;;;;;;-145.79;66.79;77771.53;5241356;28;20052;-72
2023/10/05 15:13:39;;;;;;;6.60;2.70;;;;;;;-145.79;66.11;77763.06;5248429;28;20034;-71
2023/10/05 15:16:10;;;;;;;6.25;2.70;;;;;;;-145.79;67.22;77754.59;5240906;28;20018;-72
2023/10/05 15:18:43;;;;;;;4.53;2.33;;;;;;;-145.79;66.73;77746.09;5252341;28;20032;-72
2023/10/05 15:21:15;;;;;;;6.25;3.00;;;;;;;-145.79;66.10;77748.22;5248862;28;20029;-72
2023/10/05 15:23:46;;;;;;;5.95;2.55;;;;;;;-145.79;66.39;77754.59;5244914;28;20095;-72
2023/10/05 15:26:22;;;;;;;5.88;2.83;;;;;;;-145.79;66.19;77756.72;5253164;28;20021;-71
2023/10/05 15:28:54;;;;;;;20.42;4.00;;;;;;;-145.79;67.17;77763.06;5248402;28;20048;-71
2023/10/05 15:31:25;;;;;;;4.43;3.17;;;;;;;-145.79;67.35;77752.47;5245721;28;20059;-71
2023/10/05 15:33:57;;;;;;;8.02;3.08;;;;;;;-145.79;66.57;77754.59;5253162;28;20078;-72
2023/10/05 15:36:28;;;;;;;3.35;2.30;;;;;;;-145.79;66.55;77780.03;5257468;28;20021;-71
2023/10/05 15:38:59;;;;;;;5.20;2.80;;;;;;;-145.79;67.25;77784.25;5260269;28;20031;-72
2023/10/05 15:41:33;;;;;;;5.97;2.63;;;;;;;-145.79;67.44;77788.50;5243253;28;20384;-72
2023/10/05 15:44:07;;;;;;;7.70;3.15;;;;;;;-145.79;67.44;77788.50;5242596;28;20032;-72
2023/10/05 15:46:38;;;;;;;5.72;3.00;;;;;;;-145.79;67.56;77784.25;5252058;28;20481;-72
2023/10/05 15:49:12;;;;;;;6.57;2.80;;;;;;;-145.79;68.71;77801.22;5244844;28;20028;-72
2023/10/05 15:51:45;;;;;;;10.02;6.63;;;;;;;-145.79;68.64;77805.47;5244553;28;20025;-72
2023/10/05 15:54:16;;;;;;;5.43;3.25;;;;;;;-145.79;68.86;77796.97;5268140;28;20025;-72
2023/10/05 15:56:47;;;;;;;6.03;3.55;;;;;;;-145.79;68.88;77790.63;5252756;28;20534;-72
2023/10/05 15:59:19;;;;;;;9.15;2.92;;;;;;;-145.79;68.78;77796.97;5259703;28;20112;-72
2023/10/05 16:01:50;;;;;;;5.88;3.15;;;;;;;-145.79;68.58;77807.59;5265633;28;20031;-71
2023/10/05 16:04:32;;;;;;;8.70;3.40;;;;;;;-145.79;69.30;77809.69;5256625;28;20105;-72
2023/10/05 16:07:07;;;;;;;5.10;3.15;;;;;;;-145.79;69.28;77811.81;5250942;28;20072;-72
2023/10/05 16:09:38;;;;;;;5.53;2.58;;;;;;;-145.79;69.55;77818.19;5265475;28;20389;-70
2023/10/05 16:12:10;;;;;;;6.60;3.28;;;;;;;-145.79;70.34;77839.38;5256290;28;20020;-71
2023/10/05 16:14:41;;;;;;;5.40;2.83;;;;;;;-145.79;70.49;77841.50;5248154;28;20018;-71
2023/10/05 16:17:18;;;;;;;4.78;2.75;;;;;;;-145.79;70.38;77830.91;5245312;28;20042;-72
2023/10/05 16:19:49;;;;;;;9.57;4.03;;;;;;;-145.79;70.63;77839.38;5245257;28;20087;-71
2023/10/05 16:22:21;;;;;;;39.85;35.75;;;;;;;-145.79;70.60;77837.25;5247928;28;20033;-71
2023/10/05 16:24:53;;;;;;;8.63;5.15;;;;;;;-145.79;70.63;77835.13;5265006;28;20428;-71
2023/10/05 16:27:24;;;;;;;5.68;3.47;;;;;;;-145.79;70.91;77843.63;5261151;28;20020;-69
2023/10/05 16:29:55;;;;;;;5.32;3.30;;;;;;;-145.79;71.31;77845.75;5264105;28;20036;-71
2023/10/05 16:32:27;;;;;;;5.20;3.10;;;;;;;-145.79;71.26;77847.84;5264673;28;20033;-71
2023/10/05 16:35:00;;;;;;;6.88;4.55;;;;;;;-145.79;71.97;77864.81;5263133;28;20111;-71
2023/10/05 16:37:38;;;;;;;5.68;3.17;;;;;;;-145.79;71.79;77860.56;5258423;28;20029;-71
2023/10/05 16:40:11;;;;;;;9.05;5.10;;;;;;;-145.79;71.87;77869.06;5263290;28;20032;-71
2023/10/05 16:42:45;;;;;;;7.88;3.83;;;;;;;-145.79;72.05;77877.53;5272107;28;20021;-71
2023/10/05 16:45:20;;;;;;;7.15;3.97;;;;;;;-145.79;72.15;77877.53;5274737;28;20025;-71
2023/10/05 16:47:57;;;;;;;7.18;4.22;;;;;;;-145.79;72.35;77890.25;5279540;28;20025;-72
2023/10/05 16:50:33;;;;;;;8.40;4.38;;;;;;;-145.79;72.89;77890.25;5283259;28;20029;-71
2023/10/05 16:53:06;;;;;;;7.90;4.35;;;;;;;-145.79;72.97;77902.97;5263551;28;20495;-71
